createdAt,value
2022-08-17T00:02:26.533Z,19.48
2022-08-17T00:05:31.968Z,13.45
2022-08-17T00:08:37.494Z,20.73
2022-08-17T00:11:42.987Z,23.90
2022-08-17T00:15:10.416Z,19.80
2022-08-17T00:19:01.315Z,18.83
2022-08-17T00:21:57.934Z,21.27
2022-08-17T00:24:59.670Z,22.30
2022-08-17T00:28:04.574Z,19.85
2022-08-17T00:31:11.446Z,23.00
2022-08-17T00:34:14.040Z,14.93
2022-08-17T00:37:16.209Z,19.67
2022-08-17T00:40:19.970Z,17.50
2022-08-17T00:43:57.267Z,50.67
2022-08-17T00:46:59.498Z,34.97
2022-08-17T00:50:01.825Z,28.17
2022-08-17T00:53:05.049Z,18.50
2022-08-17T00:56:10.882Z,17.42
2022-08-17T00:59:17.659Z,14.43
2022-08-17T01:02:20.209Z,19.90
2022-08-17T01:05:26.496Z,16.30
2022-08-17T01:08:32.522Z,17.75
2022-08-17T01:11:37.197Z,17.52
2022-08-17T01:14:40.180Z,21.80
2022-08-17T01:17:43.312Z,17.70
2022-08-17T01:20:50.306Z,17.77
2022-08-17T01:23:52.559Z,17.90
2022-08-17T01:26:56.675Z,15.85
2022-08-17T01:30:06.153Z,17.02
2022-08-17T01:33:28.642Z,14.02
2022-08-17T01:36:30.886Z,22.63
2022-08-17T01:39:43.503Z,15.30
2022-08-17T01:43:08.402Z,13.98
2022-08-17T01:46:17.054Z,15.32
2022-08-17T01:49:19.583Z,18.58
2022-08-17T01:52:23.744Z,14.10
2022-08-17T01:55:33.554Z,13.88
2022-08-17T01:58:37.555Z,17.48
2022-08-17T02:01:40.273Z,13.77
2022-08-17T02:04:42.387Z,14.85
2022-08-17T02:07:59.700Z,14.48
2022-08-17T02:11:05.872Z,17.48
2022-08-17T02:14:13.855Z,14.43
2022-08-17T02:17:15.891Z,16.45
2022-08-17T02:20:18.745Z,17.00
2022-08-17T02:23:45.898Z,17.20
2022-08-17T02:26:48.044Z,17.98
2022-08-17T02:29:50.040Z,14.02
2022-08-17T02:32:56.102Z,13.20
2022-08-17T02:35:58.593Z,16.17
2022-08-17T02:39:05.978Z,17.23
2022-08-17T02:42:08.072Z,19.23
2022-08-17T02:45:17.186Z,21.15
2022-08-17T02:48:31.677Z,16.50
2022-08-17T02:51:35.279Z,16.67
2022-08-17T02:54:41.791Z,16.80
2022-08-17T02:57:45.196Z,15.20
2022-08-17T03:00:48.265Z,15.02
2022-08-17T03:03:50.477Z,16.42
2022-08-17T03:06:52.772Z,14.90
2022-08-17T03:09:55.478Z,16.33
2022-08-17T03:12:57.686Z,16.27
2022-08-17T03:15:59.838Z,17.98
2022-08-17T03:19:01.752Z,16.00
2022-08-17T03:22:36.209Z,14.95
2022-08-17T03:25:32.023Z,16.02
2022-08-17T03:28:38.164Z,16.30
2022-08-17T03:31:40.295Z,18.17
2022-08-17T03:34:43.075Z,17.23
2022-08-17T03:37:45.066Z,18.58
2022-08-17T03:40:58.931Z,17.05
2022-08-17T03:44:01.941Z,22.60
2022-08-17T03:47:22.510Z,22.20
2022-08-17T03:50:43.008Z,21.27
2022-08-17T03:54:21.499Z,22.55
2022-08-17T03:57:24.418Z,24.58
2022-08-17T04:00:27.775Z,23.23
2022-08-17T04:03:29.898Z,21.58
2022-08-17T04:06:32.032Z,24.08
2022-08-17T04:09:34.954Z,21.63
2022-08-17T04:12:52.938Z,21.25
2022-08-17T04:15:54.914Z,19.23
2022-08-17T04:18:57.021Z,29.58
2022-08-17T04:21:59.006Z,29.05
2022-08-17T04:25:20.563Z,21.98
2022-08-17T04:28:22.552Z,63.70
2022-08-17T04:31:27.086Z,64.47
2022-08-17T04:34:29.022Z,66.10
2022-08-17T04:37:31.126Z,60.50
2022-08-17T04:40:52.284Z,61.53
2022-08-17T04:43:58.148Z,51.20
2022-08-17T04:47:00.191Z,48.08
2022-08-17T04:50:03.999Z,41.92
2022-08-17T04:53:06.065Z,45.65
2022-08-17T04:56:15.928Z,39.33
2022-08-17T04:59:21.681Z,38.63
2022-08-17T05:02:23.766Z,31.95
2022-08-17T05:05:29.619Z,34.30
2022-08-17T05:08:33.439Z,25.65
2022-08-17T05:11:36.349Z,29.95
2022-08-17T05:14:39.389Z,23.80
2022-08-17T05:17:41.736Z,23.40
2022-08-17T05:20:44.203Z,26.55
2022-08-17T05:23:50.277Z,23.42
2022-08-17T05:27:02.590Z,22.52
2022-08-17T05:30:08.645Z,25.63
2022-08-17T05:33:20.159Z,24.08
2022-08-17T05:36:37.946Z,21.85
2022-08-17T05:39:44.191Z,26.13
2022-08-17T05:42:46.846Z,22.25
2022-08-17T05:46:07.782Z,22.38
2022-08-17T05:49:10.970Z,22.65
2022-08-17T05:52:31.526Z,23.58
2022-08-17T05:55:46.235Z,27.48
2022-08-17T05:59:13.343Z,20.50
2022-08-17T06:02:24.481Z,22.15
2022-08-17T06:06:01.464Z,20.05
2022-08-17T06:09:37.000Z,22.85
2022-08-17T06:13:08.570Z,18.38
2022-08-17T06:16:33.776Z,23.65
2022-08-17T06:19:45.762Z,48.85
2022-08-17T06:22:54.348Z,28.05
2022-08-17T06:26:03.844Z,26.00
2022-08-17T06:29:37.285Z,23.33
2022-08-17T06:32:45.376Z,21.30
2022-08-17T06:36:09.303Z,21.08
2022-08-17T06:39:11.859Z,27.98
2022-08-17T06:43:02.569Z,24.00
2022-08-17T06:46:10.660Z,20.60
2022-08-17T06:49:28.590Z,19.90
2022-08-17T06:52:46.551Z,22.58
2022-08-17T06:56:06.276Z,14.95
2022-08-17T06:59:13.426Z,15.27
2022-08-17T07:02:52.884Z,17.65
2022-08-17T07:06:01.226Z,15.68
2022-08-17T07:09:23.299Z,14.10
2022-08-17T07:12:31.438Z,13.55
2022-08-17T07:15:42.624Z,31.65
2022-08-17T07:18:44.973Z,12.63
2022-08-17T07:21:56.951Z,13.18
2022-08-17T07:25:09.603Z,14.77
2022-08-17T07:28:12.996Z,12.50
2022-08-17T07:31:17.473Z,16.77
2022-08-17T07:34:19.697Z,14.35
2022-08-17T07:37:21.854Z,14.60
2022-08-17T07:40:31.017Z,13.63
2022-08-17T07:43:42.262Z,12.90
2022-08-17T07:47:09.821Z,13.30
2022-08-17T07:50:28.912Z,12.30
2022-08-17T07:53:31.952Z,20.48
2022-08-17T07:56:48.045Z,14.68
2022-08-17T08:00:02.001Z,13.60
2022-08-17T08:03:27.306Z,19.50
2022-08-17T08:06:30.603Z,15.63
2022-08-17T08:09:38.519Z,14.15
2022-08-17T08:12:48.939Z,13.30
2022-08-17T08:16:20.326Z,29.42
2022-08-17T08:19:25.067Z,19.48
2022-08-17T08:22:53.414Z,12.18
2022-08-17T08:26:09.689Z,12.63
2022-08-17T08:29:39.807Z,11.52
2022-08-17T08:32:42.834Z,14.82
2022-08-17T08:35:58.535Z,12.85
2022-08-17T08:39:06.056Z,12.15
2022-08-17T08:42:08.443Z,13.40
2022-08-17T08:45:13.612Z,13.60
2022-08-17T08:48:46.238Z,13.70
2022-08-17T08:51:48.634Z,18.33
2022-08-17T08:55:20.628Z,15.02
2022-08-17T08:58:43.580Z,11.93
2022-08-17T09:02:04.056Z,12.73
2022-08-17T09:05:16.509Z,10.95
2022-08-17T09:08:39.974Z,11.70
2022-08-17T09:12:02.429Z,10.95
2022-08-17T09:15:19.879Z,12.30
2022-08-17T09:19:03.455Z,11.85
2022-08-17T09:22:31.581Z,10.73
2022-08-17T09:25:49.795Z,10.90
2022-08-17T09:29:01.486Z,11.88
2022-08-17T09:32:29.810Z,14.10
2022-08-17T09:35:39.601Z,10.50
2022-08-17T09:38:50.283Z,9.40
2022-08-17T09:42:00.300Z,9.05
2022-08-17T09:45:08.423Z,8.65
2022-08-17T09:48:40.045Z,10.18
2022-08-17T09:51:48.694Z,10.00
2022-08-17T09:54:53.235Z,8.48
2022-08-17T09:58:16.211Z,8.45
2022-08-17T10:01:31.753Z,8.80
2022-08-17T10:04:49.934Z,8.93
2022-08-17T10:08:30.535Z,8.68
2022-08-17T10:12:12.789Z,8.40
2022-08-17T10:15:47.111Z,8.85
2022-08-17T10:18:58.025Z,7.93
2022-08-17T10:22:38.185Z,8.43
2022-08-17T10:26:04.851Z,8.10
2022-08-17T10:29:17.644Z,10.63
2022-08-17T10:32:35.158Z,7.47
2022-08-17T10:35:46.113Z,6.13
2022-08-17T10:38:58.326Z,6.60
2022-08-17T10:42:11.973Z,7.80
2022-08-17T10:46:10.601Z,7.90
2022-08-17T10:49:32.654Z,8.68
2022-08-17T10:52:55.198Z,7.15
2022-08-17T10:56:12.403Z,8.25
2022-08-17T10:59:37.092Z,8.43
2022-08-17T11:02:49.974Z,8.75
2022-08-17T11:06:06.168Z,18.27
2022-08-17T11:09:47.372Z,7.55
2022-08-17T11:13:12.985Z,8.32
2022-08-17T11:16:17.793Z,9.13
2022-08-17T11:19:26.399Z,8.48
2022-08-17T11:22:34.507Z,7.50
2022-08-17T11:25:43.778Z,8.00
2022-08-17T11:28:52.550Z,7.53
2022-08-17T11:32:27.310Z,7.43
2022-08-17T11:35:39.888Z,8.25
2022-08-17T11:39:00.907Z,8.80
2022-08-17T11:42:25.520Z,8.10
2022-08-17T11:45:52.553Z,7.60
2022-08-17T11:49:34.502Z,8.10
2022-08-17T11:52:49.059Z,7.90
2022-08-17T11:55:56.771Z,7.45
2022-08-17T11:59:00.685Z,7.75
2022-08-17T12:02:29.803Z,8.60
2022-08-17T12:05:34.142Z,7.20
2022-08-17T12:08:43.432Z,12.25
2022-08-17T12:12:04.589Z,13.13
2022-08-17T12:15:17.992Z,9.23
2022-08-17T12:18:24.653Z,9.27
2022-08-17T12:21:45.369Z,9.20
2022-08-17T12:25:16.728Z,10.93
2022-08-17T12:28:29.251Z,8.50
2022-08-17T12:31:43.162Z,8.45
2022-08-17T12:34:47.273Z,13.70
2022-08-17T12:37:50.576Z,7.95
2022-08-17T12:40:55.590Z,20.75
2022-08-17T12:44:12.180Z,8.00
2022-08-17T12:47:22.524Z,10.35
2022-08-17T12:50:29.398Z,7.82
2022-08-17T12:53:35.786Z,8.30
2022-08-17T12:56:38.144Z,7.43
2022-08-17T12:59:43.848Z,10.15
2022-08-17T13:02:51.908Z,8.05
2022-08-17T13:06:06.275Z,7.70
2022-08-17T13:09:15.211Z,13.02
2022-08-17T13:12:27.312Z,7.72
2022-08-17T13:15:38.163Z,8.13
2022-08-17T13:19:04.751Z,7.30
2022-08-17T13:22:10.960Z,14.20
2022-08-17T13:25:16.683Z,8.48
2022-08-17T13:28:30.755Z,14.40
2022-08-17T13:31:52.290Z,12.20
2022-08-17T13:35:15.428Z,7.50
2022-08-17T13:38:45.748Z,8.15
2022-08-17T13:41:49.907Z,8.38
2022-08-17T13:44:52.093Z,8.27
2022-08-17T13:48:13.976Z,8.18
2022-08-17T13:51:24.716Z,7.85
2022-08-17T13:54:37.689Z,8.38
2022-08-17T13:57:46.969Z,8.38
2022-08-17T14:00:50.646Z,8.55
2022-08-17T14:03:52.804Z,8.65
2022-08-17T14:06:59.648Z,8.77
2022-08-17T14:10:17.356Z,8.13
2022-08-17T14:13:19.406Z,7.93
2022-08-17T14:16:22.246Z,8.18
2022-08-17T14:19:25.321Z,7.35
2022-08-17T14:22:33.023Z,7.75
2022-08-17T14:25:35.213Z,7.50
2022-08-17T14:28:38.731Z,11.10
2022-08-17T14:31:57.937Z,7.50
2022-08-17T14:35:05.060Z,8.48
2022-08-17T14:38:07.961Z,8.32
2022-08-17T14:41:10.117Z,17.85
2022-08-17T14:44:12.627Z,12.32
2022-08-17T14:47:15.863Z,11.52
2022-08-17T14:50:19.673Z,7.72
2022-08-17T14:53:21.811Z,7.82
2022-08-17T14:56:25.274Z,8.32
2022-08-17T14:59:27.783Z,7.97
2022-08-17T15:02:31.123Z,9.23
2022-08-17T15:05:36.631Z,69.53
2022-08-17T15:08:38.707Z,14.93
2022-08-17T15:11:40.948Z,9.05
2022-08-17T15:14:43.110Z,8.55
2022-08-17T15:17:46.148Z,8.13
2022-08-17T15:20:50.094Z,8.23
2022-08-17T15:23:52.311Z,9.13
2022-08-17T15:26:54.189Z,7.25
2022-08-17T15:29:56.373Z,40.05
2022-08-17T15:33:00.706Z,14.48
2022-08-17T15:36:09.250Z,11.95
2022-08-17T15:39:11.223Z,8.52
2022-08-17T15:42:13.610Z,12.98
2022-08-17T15:45:16.925Z,8.85
2022-08-17T15:48:20.410Z,15.02
2022-08-17T15:51:23.467Z,7.57
2022-08-17T15:54:25.528Z,23.48
2022-08-17T15:57:33.848Z,12.18
2022-08-17T16:00:48.848Z,7.85
2022-08-17T16:04:07.183Z,16.40
2022-08-17T16:07:26.793Z,8.07
2022-08-17T16:10:35.000Z,7.22
2022-08-17T16:13:39.732Z,7.78
2022-08-17T16:16:41.857Z,7.82
2022-08-17T16:19:44.331Z,7.90
2022-08-17T16:22:46.450Z,7.93
2022-08-17T16:25:53.483Z,8.10
2022-08-17T16:28:58.139Z,7.63
2022-08-17T16:32:09.258Z,7.40
2022-08-17T16:35:16.142Z,7.93
2022-08-17T16:38:18.496Z,8.20
2022-08-17T16:41:40.032Z,8.60
2022-08-17T16:44:42.180Z,7.20
2022-08-17T16:47:44.882Z,7.32
2022-08-17T16:50:58.577Z,7.45
2022-08-17T16:54:06.596Z,7.95
2022-08-17T16:57:09.409Z,7.68
2022-08-17T17:00:13.489Z,7.25
2022-08-17T17:03:20.222Z,7.55
2022-08-17T17:07:01.221Z,8.10
2022-08-17T17:10:10.231Z,7.93
2022-08-17T17:13:35.186Z,7.75
2022-08-17T17:16:45.563Z,8.10
2022-08-17T17:19:53.974Z,10.02
2022-08-17T17:23:09.029Z,9.98
2022-08-17T17:26:24.767Z,8.32
2022-08-17T17:29:48.336Z,8.55
2022-08-17T17:33:09.262Z,8.52
2022-08-17T17:36:33.098Z,8.00
2022-08-17T17:39:44.637Z,8.15
2022-08-17T17:42:48.564Z,11.27
2022-08-17T17:46:27.921Z,7.65
2022-08-17T17:49:23.570Z,9.63
2022-08-17T17:53:02.135Z,12.98
2022-08-17T17:56:34.309Z,13.52
2022-08-17T17:59:50.409Z,10.02
2022-08-17T18:03:04.542Z,10.38
2022-08-17T18:06:25.586Z,8.73
2022-08-17T18:09:43.451Z,7.97
2022-08-17T18:13:02.634Z,12.18
2022-08-17T18:16:08.222Z,9.82
2022-08-17T18:19:22.940Z,8.15
2022-08-17T18:22:25.307Z,17.65
2022-08-17T18:25:39.759Z,81.90
2022-08-17T18:28:43.960Z,49.42
2022-08-17T18:31:46.518Z,28.73
2022-08-17T18:34:53.762Z,44.35
2022-08-17T18:38:27.405Z,37.15
2022-08-17T18:41:39.016Z,19.85
2022-08-17T18:44:41.118Z,17.30
2022-08-17T18:47:54.638Z,10.48
2022-08-17T18:51:40.038Z,15.88
2022-08-17T18:55:11.654Z,23.08
2022-08-17T18:58:24.295Z,8.48
2022-08-17T19:01:41.949Z,9.48
2022-08-17T19:05:13.588Z,12.50
2022-08-17T19:08:24.163Z,70.90
2022-08-17T19:11:35.417Z,26.63
2022-08-17T19:14:37.665Z,23.60
2022-08-17T19:18:00.689Z,22.25
2022-08-17T19:21:34.300Z,11.82
2022-08-17T19:24:37.441Z,12.48
2022-08-17T19:28:02.942Z,25.10
2022-08-17T19:31:30.607Z,54.45
2022-08-17T19:34:35.832Z,77.90
2022-08-17T19:37:53.343Z,39.58
2022-08-17T19:41:29.932Z,13.95
2022-08-17T19:45:03.998Z,12.10
2022-08-17T19:48:12.524Z,14.32
2022-08-17T19:51:20.639Z,17.90
2022-08-17T19:54:47.300Z,103.53
2022-08-17T19:57:55.830Z,97.38
2022-08-17T20:00:58.146Z,49.47
2022-08-17T20:04:11.643Z,59.25
2022-08-17T20:07:30.244Z,21.30
2022-08-17T20:11:07.006Z,17.73
2022-08-17T20:14:16.201Z,23.65
2022-08-17T20:17:18.544Z,19.13
2022-08-17T20:20:49.619Z,25.42
2022-08-17T20:24:00.156Z,19.33
2022-08-17T20:27:18.427Z,14.10
2022-08-17T20:30:23.357Z,18.83
2022-08-17T20:33:37.337Z,11.27
2022-08-17T20:36:57.332Z,12.25
2022-08-17T20:39:59.466Z,18.55
2022-08-17T20:43:33.425Z,14.07
2022-08-17T20:46:38.527Z,20.42
2022-08-17T20:49:47.590Z,16.55
2022-08-17T20:52:54.197Z,14.65
2022-08-17T20:55:56.308Z,19.48
2022-08-17T20:59:00.787Z,13.60
2022-08-17T21:02:08.904Z,13.80
2022-08-17T21:06:00.280Z,12.60
2022-08-17T21:09:32.697Z,35.65
2022-08-17T21:12:58.035Z,68.60
2022-08-17T21:16:29.254Z,27.65
2022-08-17T21:19:54.250Z,19.20
2022-08-17T21:23:13.241Z,17.55
2022-08-17T21:27:14.104Z,13.35
2022-08-17T21:30:38.784Z,20.55
2022-08-17T21:34:15.080Z,17.90
2022-08-17T21:37:23.356Z,12.40
2022-08-17T21:40:29.570Z,13.10
2022-08-17T21:43:37.741Z,16.02
2022-08-17T21:46:46.480Z,15.05
2022-08-17T21:49:49.116Z,13.73
2022-08-17T21:52:54.099Z,14.32
2022-08-17T21:55:58.895Z,15.00
2022-08-17T21:59:08.451Z,15.70
2022-08-17T22:02:22.289Z,14.82
2022-08-17T22:05:39.669Z,19.60
2022-08-17T22:08:41.551Z,26.75
2022-08-17T22:12:11.255Z,18.13
2022-08-17T22:15:17.672Z,15.68
2022-08-17T22:18:26.865Z,20.60
2022-08-17T22:21:28.863Z,15.45
2022-08-17T22:24:31.214Z,15.45
2022-08-17T22:27:55.541Z,17.98
2022-08-17T22:31:04.250Z,20.63
2022-08-17T22:34:15.875Z,14.95
2022-08-17T22:37:28.110Z,17.15
2022-08-17T22:40:33.370Z,13.95
2022-08-17T22:43:38.468Z,13.88
2022-08-17T22:46:53.141Z,14.65
2022-08-17T22:49:58.804Z,13.85
2022-08-17T22:53:31.206Z,14.82
2022-08-17T22:56:56.230Z,13.63
2022-08-17T22:59:59.156Z,16.63
2022-08-17T23:17:25.604Z,18.08
2022-08-17T23:20:27.686Z,24.60
2022-08-17T23:23:29.622Z,24.02
2022-08-17T23:26:31.736Z,18.63
2022-08-17T23:29:34.907Z,21.63
2022-08-17T23:32:50.743Z,19.10
2022-08-17T23:35:58.777Z,15.85
2022-08-17T23:39:00.899Z,21.60
2022-08-17T23:42:10.365Z,16.33
2022-08-17T23:45:12.500Z,18.05
2022-08-17T23:48:14.372Z,14.80
2022-08-17T23:51:42.555Z,16.65
2022-08-17T23:54:46.857Z,18.48
2022-08-17T23:57:49.059Z,18.95
